AAL2358 KDFW-KLGA
Flight info
| Callsign | AAL2358 |
|---|---|
| Flight time | 2h 53m |
| Altitude | 35000 |
| Route | FORCK3 FORCK DCT ELD DCT IZAAC Q30 VLKNN DCT THRSR DCT TWOUP Q22 BURGG Q60 HURTS PROUD2 |
| Aircraft | B738/M-SDE2E3FGHIRWXY/LB1 |
Departure
| Time | 2026-05-05 16:15 |
|---|---|
| Airport | Dallas Fort Worth International Airport (KDFW) |
Arrival
| Time | 2026-05-05 19:08 |
|---|---|
| Airport | LaGuardia Airport (KLGA) |
| Time | Latitude | Longitude | Altitude | Speed | Heading |
|---|---|---|---|---|---|
| 2026-05-05 15:25 | 32.89999 | -97.04224 | 598 ft | 0 kts | 188° |
| 2026-05-05 15:56 | 32.90009 | -97.04222 | 598 ft | 4 kts | 186° |
| 2026-05-05 15:57 | 32.90033 | -97.04223 | 598 ft | 4 kts | 139° |
| 2026-05-05 15:57 | 32.90044 | -97.04244 | 598 ft | 4 kts | 111° |
| 2026-05-05 15:57 | 32.90052 | -97.04273 | 598 ft | 2 kts | 109° |
| 2026-05-05 15:57 | 32.90064 | -97.04299 | 598 ft | 4 kts | 136° |
| 2026-05-05 15:58 | 32.90086 | -97.04314 | 597 ft | 4 kts | 173° |
| 2026-05-05 15:58 | 32.90100 | -97.04315 | 596 ft | 4 kts | 188° |
| 2026-05-05 15:58 | 32.90081 | -97.04328 | 597 ft | 4 kts | 237° |
| 2026-05-05 15:58 | 32.90080 | -97.04355 | 597 ft | 4 kts | 270° |
| 2026-05-05 15:59 | 32.90080 | -97.04385 | 597 ft | 2 kts | 270° |
| 2026-05-05 15:59 | 32.90080 | -97.04386 | 597 ft | 2 kts | 270° |
| 2026-05-05 16:04 | 32.90080 | -97.04387 | 597 ft | 1 kts | 270° |
| 2026-05-05 16:04 | 32.90080 | -97.04414 | 597 ft | 6 kts | 270° |
| 2026-05-05 16:05 | 32.90080 | -97.04470 | 597 ft | 7 kts | 270° |
| 2026-05-05 16:05 | 32.90081 | -97.04532 | 597 ft | 9 kts | 270° |
| 2026-05-05 16:05 | 32.90081 | -97.04612 | 597 ft | 7 kts | 269° |
| 2026-05-05 16:05 | 32.90080 | -97.04672 | 597 ft | 8 kts | 269° |
| 2026-05-05 16:06 | 32.90080 | -97.04741 | 597 ft | 7 kts | 278° |
| 2026-05-05 16:06 | 32.90117 | -97.04765 | 596 ft | 7 kts | 0° |
| 2026-05-05 16:06 | 32.90193 | -97.04763 | 596 ft | 15 kts | 1° |
| 2026-05-05 16:06 | 32.90322 | -97.04762 | 596 ft | 19 kts | 0° |
| 2026-05-05 16:07 | 32.90455 | -97.04762 | 596 ft | 19 kts | 0° |
| 2026-05-05 16:07 | 32.90584 | -97.04761 | 596 ft | 18 kts | 0° |
| 2026-05-05 16:07 | 32.90708 | -97.04760 | 596 ft | 18 kts | 0° |
| 2026-05-05 16:07 | 32.90829 | -97.04760 | 598 ft | 17 kts | 360° |
| 2026-05-05 16:08 | 32.90936 | -97.04760 | 603 ft | 11 kts | 1° |
| 2026-05-05 16:08 | 32.91005 | -97.04734 | 603 ft | 11 kts | 61° |
| 2026-05-05 16:08 | 32.91011 | -97.04627 | 600 ft | 17 kts | 90° |
| 2026-05-05 16:08 | 32.91010 | -97.04460 | 599 ft | 21 kts | 90° |
| 2026-05-05 16:09 | 32.91010 | -97.04290 | 620 ft | 20 kts | 91° |
| 2026-05-05 16:09 | 32.91009 | -97.04164 | 612 ft | 16 kts | 91° |
| 2026-05-05 16:09 | 32.91008 | -97.04036 | 608 ft | 15 kts | 90° |
| 2026-05-05 16:09 | 32.91007 | -97.03914 | 608 ft | 14 kts | 90° |
| 2026-05-05 16:10 | 32.91007 | -97.03786 | 602 ft | 19 kts | 89° |
| 2026-05-05 16:10 | 32.91007 | -97.03599 | 584 ft | 23 kts | 90° |
| 2026-05-05 16:10 | 32.91006 | -97.03445 | 582 ft | 15 kts | 89° |
| 2026-05-05 16:10 | 32.91006 | -97.03325 | 581 ft | 14 kts | 88° |
| 2026-05-05 16:11 | 32.91077 | -97.03272 | 579 ft | 14 kts | 360° |
| 2026-05-05 16:11 | 32.91430 | -97.03273 | 577 ft | 15 kts | 0° |
| 2026-05-05 16:12 | 32.91488 | -97.03237 | 579 ft | 9 kts | 78° |
| 2026-05-05 16:12 | 32.91486 | -97.03104 | 581 ft | 7 kts | 90° |
| 2026-05-05 16:13 | 32.91467 | -97.02986 | 581 ft | 0 kts | 181° |
| 2026-05-05 16:14 | 32.91181 | -97.02990 | 578 ft | 71 kts | 180° |
| 2026-05-05 16:14 | 32.89468 | -97.02995 | 612 ft | 168 kts | 182° |
| 2026-05-05 16:15 | 32.87013 | -97.02932 | 1811 ft | 185 kts | 183° |
| 2026-05-05 16:15 | 32.84198 | -97.02934 | 2375 ft | 221 kts | 185° |
| 2026-05-05 16:16 | 32.80853 | -97.02947 | 3067 ft | 257 kts | 188° |
| 2026-05-05 16:16 | 32.77160 | -97.02974 | 4263 ft | 270 kts | 187° |
| 2026-05-05 16:17 | 32.73343 | -97.02962 | 5555 ft | 281 kts | 179° |
| 2026-05-05 16:17 | 32.71478 | -97.02128 | 6176 ft | 296 kts | 147° |
| 2026-05-05 16:18 | 32.69552 | -96.97796 | 7414 ft | 310 kts | 105° |
| 2026-05-05 16:18 | 32.69055 | -96.95289 | 7992 ft | 313 kts | 104° |
| 2026-05-05 16:18 | 32.69002 | -96.90087 | 9215 ft | 321 kts | 84° |
| 2026-05-05 16:19 | 32.69229 | -96.87440 | 9807 ft | 324 kts | 84° |
| 2026-05-05 16:19 | 32.69439 | -96.84759 | 10328 ft | 331 kts | 85° |
| 2026-05-05 16:19 | 32.69884 | -96.79006 | 10828 ft | 363 kts | 81° |
| 2026-05-05 16:20 | 32.71119 | -96.72916 | 11086 ft | 398 kts | 73° |
| 2026-05-05 16:20 | 32.72653 | -96.66375 | 11615 ft | 419 kts | 73° |
| 2026-05-05 16:21 | 32.74145 | -96.59632 | 12653 ft | 425 kts | 74° |
| 2026-05-05 16:22 | 32.76092 | -96.50465 | 13957 ft | 436 kts | 74° |
| 2026-05-05 16:22 | 32.77584 | -96.43386 | 14850 ft | 446 kts | 74° |
| 2026-05-05 16:23 | 32.79104 | -96.36171 | 15757 ft | 454 kts | 74° |
| 2026-05-05 16:23 | 32.79857 | -96.32501 | 16224 ft | 458 kts | 77° |
| 2026-05-05 16:23 | 32.80770 | -96.24920 | 17112 ft | 468 kts | 84° |
| 2026-05-05 16:24 | 32.81103 | -96.21050 | 17552 ft | 472 kts | 84° |
| 2026-05-05 16:24 | 32.81438 | -96.17209 | 17984 ft | 475 kts | 84° |
| 2026-05-05 16:24 | 32.82195 | -96.09315 | 18706 ft | 484 kts | 83° |
| 2026-05-05 16:25 | 32.82602 | -96.05332 | 19119 ft | 486 kts | 82° |
| 2026-05-05 16:25 | 32.83432 | -95.97306 | 19846 ft | 493 kts | 82° |
| 2026-05-05 16:25 | 32.83850 | -95.93240 | 20171 ft | 498 kts | 82° |
| 2026-05-05 16:26 | 32.84689 | -95.84992 | 20854 ft | 505 kts | 81° |
| 2026-05-05 16:26 | 32.85532 | -95.76643 | 21516 ft | 512 kts | 81° |
| 2026-05-05 16:27 | 32.85953 | -95.72465 | 21828 ft | 516 kts | 81° |
| 2026-05-05 16:27 | 32.86380 | -95.68212 | 22131 ft | 520 kts | 81° |
| 2026-05-05 16:27 | 32.86810 | -95.63912 | 22424 ft | 524 kts | 81° |
| 2026-05-05 16:27 | 32.87240 | -95.59593 | 22750 ft | 527 kts | 81° |
| 2026-05-05 16:28 | 32.87670 | -95.55265 | 23068 ft | 530 kts | 81° |
| 2026-05-05 16:28 | 32.88103 | -95.50881 | 23361 ft | 533 kts | 81° |
| 2026-05-05 16:28 | 32.88536 | -95.46492 | 23600 ft | 536 kts | 81° |
| 2026-05-05 16:28 | 32.88969 | -95.42073 | 23855 ft | 538 kts | 81° |
| 2026-05-05 16:29 | 32.89403 | -95.37636 | 24140 ft | 540 kts | 81° |
| 2026-05-05 16:29 | 32.89835 | -95.33196 | 24410 ft | 541 kts | 81° |
| 2026-05-05 16:29 | 32.90269 | -95.28724 | 24706 ft | 542 kts | 81° |
| 2026-05-05 16:29 | 32.90700 | -95.24259 | 24990 ft | 543 kts | 81° |
| 2026-05-05 16:30 | 32.91125 | -95.19847 | 25228 ft | 545 kts | 81° |
| 2026-05-05 16:30 | 32.91557 | -95.15347 | 25450 ft | 548 kts | 81° |
| 2026-05-05 16:30 | 32.91990 | -95.10820 | 25667 ft | 550 kts | 81° |
| 2026-05-05 16:30 | 32.92422 | -95.06288 | 25900 ft | 552 kts | 81° |
| 2026-05-05 16:31 | 32.92854 | -95.01737 | 26131 ft | 554 kts | 81° |
| 2026-05-05 16:31 | 32.93286 | -94.97167 | 26363 ft | 555 kts | 81° |
| 2026-05-05 16:31 | 32.93711 | -94.92647 | 26591 ft | 557 kts | 81° |
| 2026-05-05 16:31 | 32.94141 | -94.88052 | 26864 ft | 557 kts | 81° |
| 2026-05-05 16:32 | 32.94569 | -94.83470 | 27094 ft | 559 kts | 81° |
| 2026-05-05 16:32 | 32.94997 | -94.78869 | 27313 ft | 560 kts | 81° |
| 2026-05-05 16:32 | 32.95423 | -94.74263 | 27591 ft | 560 kts | 81° |
| 2026-05-05 16:32 | 32.95849 | -94.69648 | 27918 ft | 559 kts | 81° |
| 2026-05-05 16:33 | 32.96271 | -94.65052 | 28241 ft | 559 kts | 81° |
| 2026-05-05 16:33 | 32.96692 | -94.60445 | 28531 ft | 558 kts | 81° |
| 2026-05-05 16:33 | 32.97111 | -94.55849 | 28838 ft | 558 kts | 81° |
| 2026-05-05 16:33 | 32.97528 | -94.51246 | 29209 ft | 557 kts | 81° |
| 2026-05-05 16:34 | 32.97942 | -94.46668 | 29555 ft | 556 kts | 80° |
| 2026-05-05 16:34 | 32.98355 | -94.42082 | 29826 ft | 557 kts | 80° |
| 2026-05-05 16:34 | 32.98768 | -94.37481 | 30040 ft | 558 kts | 80° |
| 2026-05-05 16:34 | 32.99173 | -94.32945 | 30276 ft | 559 kts | 81° |
| 2026-05-05 16:35 | 32.99583 | -94.28330 | 30537 ft | 558 kts | 81° |
| 2026-05-05 16:35 | 33.00079 | -94.23750 | 30819 ft | 556 kts | 76° |
| 2026-05-05 16:35 | 33.00790 | -94.19233 | 31059 ft | 554 kts | 73° |
| 2026-05-05 16:35 | 33.01619 | -94.14745 | 31319 ft | 553 kts | 72° |
| 2026-05-05 16:36 | 33.02487 | -94.10281 | 31608 ft | 553 kts | 72° |
| 2026-05-05 16:36 | 33.03347 | -94.05821 | 31854 ft | 553 kts | 72° |
| 2026-05-05 16:36 | 33.04184 | -94.01339 | 32072 ft | 554 kts | 73° |
| 2026-05-05 16:36 | 33.04997 | -93.96829 | 32307 ft | 555 kts | 73° |
| 2026-05-05 16:37 | 33.05788 | -93.92318 | 32556 ft | 555 kts | 73° |
| 2026-05-05 16:37 | 33.06555 | -93.87869 | 32791 ft | 555 kts | 73° |
| 2026-05-05 16:37 | 33.07328 | -93.83352 | 33013 ft | 556 kts | 73° |
| 2026-05-05 16:37 | 33.08101 | -93.78830 | 33238 ft | 556 kts | 73° |
| 2026-05-05 16:38 | 33.08873 | -93.74311 | 33506 ft | 555 kts | 73° |
| 2026-05-05 16:38 | 33.09644 | -93.69799 | 33767 ft | 555 kts | 73° |
| 2026-05-05 16:38 | 33.10414 | -93.65294 | 33971 ft | 555 kts | 73° |
| 2026-05-05 16:38 | 33.11187 | -93.60775 | 34179 ft | 555 kts | 73° |
| 2026-05-05 16:39 | 33.11956 | -93.56265 | 34353 ft | 556 kts | 73° |
| 2026-05-05 16:39 | 33.12726 | -93.51742 | 34565 ft | 555 kts | 73° |
| 2026-05-05 16:39 | 33.13492 | -93.47224 | 34792 ft | 554 kts | 73° |
| 2026-05-05 16:39 | 33.14255 | -93.42715 | 34846 ft | 557 kts | 73° |
| 2026-05-05 16:40 | 33.15777 | -93.33699 | 34857 ft | 556 kts | 73° |
| 2026-05-05 16:40 | 33.17292 | -93.24660 | 34828 ft | 553 kts | 73° |
| 2026-05-05 16:41 | 33.18793 | -93.15669 | 34829 ft | 551 kts | 73° |
| 2026-05-05 16:41 | 33.20282 | -93.06724 | 34833 ft | 549 kts | 73° |
| 2026-05-05 16:42 | 33.21764 | -92.97769 | 34847 ft | 548 kts | 73° |
| 2026-05-05 16:42 | 33.23231 | -92.88870 | 34850 ft | 549 kts | 73° |
| 2026-05-05 16:43 | 33.24702 | -92.79902 | 34880 ft | 550 kts | 73° |
| 2026-05-05 16:43 | 33.26051 | -92.70882 | 34878 ft | 554 kts | 77° |
| 2026-05-05 16:44 | 33.26930 | -92.61711 | 34880 ft | 557 kts | 79° |
| 2026-05-05 16:44 | 33.27688 | -92.52537 | 34873 ft | 558 kts | 79° |
| 2026-05-05 16:45 | 33.28490 | -92.43297 | 34875 ft | 558 kts | 79° |
| 2026-05-05 16:45 | 33.29329 | -92.34075 | 34870 ft | 559 kts | 79° |
| 2026-05-05 16:46 | 33.30174 | -92.24847 | 34888 ft | 558 kts | 78° |
| 2026-05-05 16:46 | 33.31009 | -92.15615 | 34873 ft | 558 kts | 79° |
| 2026-05-05 16:47 | 33.31828 | -92.06439 | 34874 ft | 557 kts | 79° |
| 2026-05-05 16:47 | 33.32641 | -91.97237 | 34880 ft | 556 kts | 79° |
| 2026-05-05 16:48 | 33.33446 | -91.88055 | 34894 ft | 554 kts | 78° |
| 2026-05-05 16:48 | 33.34244 | -91.78877 | 34885 ft | 553 kts | 78° |
| 2026-05-05 16:49 | 33.35029 | -91.69775 | 34881 ft | 552 kts | 79° |
| 2026-05-05 16:49 | 33.35808 | -91.60652 | 34891 ft | 551 kts | 79° |
| 2026-05-05 16:50 | 33.36582 | -91.51528 | 34899 ft | 550 kts | 78° |
| 2026-05-05 16:50 | 33.37347 | -91.42408 | 34899 ft | 550 kts | 78° |
| 2026-05-05 16:51 | 33.38105 | -91.33310 | 34910 ft | 550 kts | 78° |
| 2026-05-05 16:51 | 33.38853 | -91.24246 | 34911 ft | 550 kts | 79° |
| 2026-05-05 16:52 | 33.39598 | -91.15138 | 34914 ft | 550 kts | 79° |
| 2026-05-05 16:52 | 33.40336 | -91.06017 | 34923 ft | 550 kts | 78° |
| 2026-05-05 16:53 | 33.41069 | -90.96887 | 34913 ft | 551 kts | 79° |
| 2026-05-05 16:53 | 33.41790 | -90.87814 | 34924 ft | 551 kts | 79° |
| 2026-05-05 16:54 | 33.42509 | -90.78688 | 34925 ft | 551 kts | 79° |
| 2026-05-05 16:54 | 33.43222 | -90.69547 | 34940 ft | 551 kts | 79° |
| 2026-05-05 16:55 | 33.43927 | -90.60422 | 34933 ft | 551 kts | 79° |
| 2026-05-05 16:55 | 33.44627 | -90.51283 | 34934 ft | 551 kts | 79° |
| 2026-05-05 16:56 | 33.45319 | -90.42153 | 34944 ft | 551 kts | 79° |
| 2026-05-05 16:56 | 33.46002 | -90.33055 | 34962 ft | 551 kts | 79° |
| 2026-05-05 16:57 | 33.46577 | -90.23889 | 34958 ft | 553 kts | 82° |
| 2026-05-05 16:57 | 33.46753 | -90.14662 | 34965 ft | 554 kts | 84° |
| 2026-05-05 16:58 | 33.46833 | -90.05428 | 34959 ft | 553 kts | 84° |
| 2026-05-05 16:58 | 33.46949 | -89.96209 | 34968 ft | 553 kts | 83° |
| 2026-05-05 16:59 | 33.47096 | -89.87002 | 34950 ft | 552 kts | 83° |
| 2026-05-05 16:59 | 33.47244 | -89.77798 | 34951 ft | 552 kts | 83° |
| 2026-05-05 17:00 | 33.47381 | -89.68668 | 34958 ft | 551 kts | 83° |
| 2026-05-05 17:00 | 33.47508 | -89.59505 | 34964 ft | 550 kts | 83° |
| 2026-05-05 17:01 | 33.47628 | -89.50348 | 34969 ft | 550 kts | 84° |
| 2026-05-05 17:01 | 33.47742 | -89.41171 | 34969 ft | 550 kts | 84° |
| 2026-05-05 17:02 | 33.47849 | -89.32017 | 34981 ft | 550 kts | 84° |
| 2026-05-05 17:02 | 33.47949 | -89.22912 | 34989 ft | 550 kts | 84° |
| 2026-05-05 17:03 | 33.48042 | -89.13748 | 34992 ft | 550 kts | 84° |
| 2026-05-05 17:03 | 33.48129 | -89.04574 | 34980 ft | 551 kts | 84° |
| 2026-05-05 17:04 | 33.48209 | -88.95388 | 34981 ft | 551 kts | 84° |
| 2026-05-05 17:04 | 33.48283 | -88.86206 | 34982 ft | 551 kts | 84° |
| 2026-05-05 17:05 | 33.48350 | -88.77024 | 34980 ft | 551 kts | 84° |
| 2026-05-05 17:05 | 33.48409 | -88.67821 | 35008 ft | 551 kts | 84° |
| 2026-05-05 17:06 | 33.48463 | -88.58699 | 35007 ft | 550 kts | 84° |
| 2026-05-05 17:06 | 33.48610 | -88.49543 | 34997 ft | 545 kts | 78° |
| 2026-05-05 17:07 | 33.49618 | -88.40608 | 34979 ft | 540 kts | 73° |
| 2026-05-05 17:07 | 33.50808 | -88.31726 | 34970 ft | 540 kts | 73° |
| 2026-05-05 17:08 | 33.51932 | -88.22886 | 34972 ft | 540 kts | 74° |
| 2026-05-05 17:08 | 33.52997 | -88.13980 | 34978 ft | 540 kts | 75° |
| 2026-05-05 17:09 | 33.54043 | -88.05037 | 34978 ft | 541 kts | 75° |
| 2026-05-05 17:09 | 33.54909 | -87.97601 | 34971 ft | 541 kts | 75° |
| 2026-05-05 17:10 | 33.55949 | -87.88657 | 34980 ft | 541 kts | 75° |
| 2026-05-05 17:10 | 33.56986 | -87.79709 | 34969 ft | 541 kts | 75° |
| 2026-05-05 17:11 | 33.58016 | -87.70753 | 34996 ft | 541 kts | 75° |
| 2026-05-05 17:11 | 33.59033 | -87.61855 | 34978 ft | 542 kts | 75° |
| 2026-05-05 17:12 | 33.60050 | -87.52895 | 34977 ft | 541 kts | 75° |
| 2026-05-05 17:12 | 33.61061 | -87.43929 | 34970 ft | 542 kts | 75° |
| 2026-05-05 17:13 | 33.62065 | -87.34961 | 34977 ft | 541 kts | 75° |
| 2026-05-05 17:13 | 33.63054 | -87.26069 | 34985 ft | 540 kts | 75° |
| 2026-05-05 17:14 | 33.64042 | -87.17123 | 34977 ft | 539 kts | 75° |
| 2026-05-05 17:14 | 33.65023 | -87.08197 | 35022 ft | 539 kts | 75° |
| 2026-05-05 17:15 | 33.65996 | -86.99281 | 35046 ft | 538 kts | 75° |
| 2026-05-05 17:15 | 33.66949 | -86.90359 | 35065 ft | 539 kts | 77° |
| 2026-05-05 17:16 | 33.67153 | -86.81368 | 35072 ft | 544 kts | 85° |
| 2026-05-05 17:16 | 33.66970 | -86.72276 | 35070 ft | 543 kts | 86° |
| 2026-05-05 17:17 | 33.66796 | -86.63204 | 35060 ft | 542 kts | 85° |
| 2026-05-05 17:17 | 33.66690 | -86.54170 | 35068 ft | 540 kts | 85° |
| 2026-05-05 17:18 | 33.66608 | -86.45211 | 35054 ft | 539 kts | 85° |
| 2026-05-05 17:18 | 33.66520 | -86.36215 | 35042 ft | 539 kts | 85° |
| 2026-05-05 17:19 | 33.66420 | -86.27204 | 35041 ft | 540 kts | 85° |
| 2026-05-05 17:19 | 33.66310 | -86.18191 | 35075 ft | 540 kts | 85° |
| 2026-05-05 17:20 | 33.66194 | -86.09160 | 35041 ft | 541 kts | 85° |
| 2026-05-05 17:20 | 33.66071 | -86.00114 | 35038 ft | 542 kts | 86° |
| 2026-05-05 17:21 | 33.65942 | -85.91107 | 35061 ft | 543 kts | 86° |
| 2026-05-05 17:22 | 33.65735 | -85.77514 | 35069 ft | 543 kts | 86° |
| 2026-05-05 17:22 | 33.65589 | -85.68445 | 35068 ft | 543 kts | 86° |
| 2026-05-05 17:23 | 33.65436 | -85.59356 | 35053 ft | 544 kts | 86° |
| 2026-05-05 17:23 | 33.65276 | -85.50265 | 35053 ft | 544 kts | 86° |
| 2026-05-05 17:24 | 33.65110 | -85.41236 | 35060 ft | 544 kts | 86° |
| 2026-05-05 17:24 | 33.64937 | -85.32162 | 35055 ft | 544 kts | 86° |
| 2026-05-05 17:25 | 33.64758 | -85.23081 | 35123 ft | 544 kts | 86° |
| 2026-05-05 17:25 | 33.64571 | -85.13995 | 35127 ft | 543 kts | 86° |
| 2026-05-05 17:26 | 33.64380 | -85.04982 | 35127 ft | 543 kts | 86° |
| 2026-05-05 17:26 | 33.64181 | -84.95918 | 35115 ft | 543 kts | 86° |
| 2026-05-05 17:27 | 33.63975 | -84.86849 | 35092 ft | 543 kts | 86° |
| 2026-05-05 17:27 | 33.63763 | -84.77784 | 35064 ft | 543 kts | 86° |
| 2026-05-05 17:28 | 33.63544 | -84.68715 | 35080 ft | 543 kts | 86° |
| 2026-05-05 17:28 | 33.63318 | -84.59651 | 35089 ft | 544 kts | 86° |
| 2026-05-05 17:29 | 33.63105 | -84.50632 | 35089 ft | 542 kts | 83° |
| 2026-05-05 17:29 | 33.64156 | -84.41878 | 35101 ft | 524 kts | 65° |
| 2026-05-05 17:30 | 33.66909 | -84.33931 | 35098 ft | 511 kts | 51° |
| 2026-05-05 17:30 | 33.70275 | -84.26446 | 35084 ft | 514 kts | 51° |
| 2026-05-05 17:31 | 33.73640 | -84.18855 | 35064 ft | 515 kts | 52° |
| 2026-05-05 17:31 | 33.76954 | -84.11225 | 35067 ft | 515 kts | 52° |
| 2026-05-05 17:32 | 33.80248 | -84.03597 | 35082 ft | 513 kts | 52° |
| 2026-05-05 17:32 | 33.83535 | -83.95984 | 35095 ft | 512 kts | 52° |
| 2026-05-05 17:33 | 33.86802 | -83.88406 | 35104 ft | 509 kts | 52° |
| 2026-05-05 17:33 | 33.90113 | -83.80918 | 35089 ft | 499 kts | 46° |
| 2026-05-05 17:34 | 33.94101 | -83.74251 | 35097 ft | 487 kts | 41° |
| 2026-05-05 17:34 | 33.98202 | -83.67790 | 35098 ft | 484 kts | 41° |
| 2026-05-05 17:35 | 34.02263 | -83.61306 | 35099 ft | 484 kts | 41° |
| 2026-05-05 17:35 | 34.06264 | -83.54810 | 35122 ft | 485 kts | 42° |
| 2026-05-05 17:36 | 34.10285 | -83.48237 | 35106 ft | 487 kts | 43° |
| 2026-05-05 17:36 | 34.14303 | -83.41648 | 35074 ft | 487 kts | 43° |
| 2026-05-05 17:37 | 34.18321 | -83.35052 | 35068 ft | 488 kts | 43° |
| 2026-05-05 17:37 | 34.22343 | -83.28441 | 35071 ft | 488 kts | 43° |
| 2026-05-05 17:38 | 34.26340 | -83.21860 | 35052 ft | 488 kts | 43° |
| 2026-05-05 17:38 | 34.30359 | -83.15230 | 35088 ft | 489 kts | 43° |
| 2026-05-05 17:39 | 34.34374 | -83.08593 | 35063 ft | 488 kts | 43° |
| 2026-05-05 17:39 | 34.38381 | -83.01956 | 35054 ft | 487 kts | 43° |
| 2026-05-05 17:40 | 34.42373 | -82.95332 | 35058 ft | 486 kts | 43° |
| 2026-05-05 17:40 | 34.46351 | -82.88722 | 35085 ft | 485 kts | 43° |
| 2026-05-05 17:41 | 34.50317 | -82.82119 | 35097 ft | 484 kts | 43° |
| 2026-05-05 17:41 | 34.54247 | -82.75564 | 35111 ft | 484 kts | 43° |
| 2026-05-05 17:42 | 34.58202 | -82.68956 | 35096 ft | 483 kts | 43° |
| 2026-05-05 17:42 | 34.62148 | -82.62349 | 35085 ft | 482 kts | 43° |
| 2026-05-05 17:43 | 34.66087 | -82.55740 | 35073 ft | 482 kts | 44° |
| 2026-05-05 17:43 | 34.70014 | -82.49141 | 35095 ft | 481 kts | 44° |
| 2026-05-05 17:44 | 34.73906 | -82.42589 | 35102 ft | 481 kts | 44° |
| 2026-05-05 17:44 | 34.77818 | -82.35993 | 35117 ft | 481 kts | 43° |
| 2026-05-05 17:45 | 34.81729 | -82.29382 | 35107 ft | 481 kts | 43° |
| 2026-05-05 17:45 | 34.85641 | -82.22759 | 35097 ft | 480 kts | 43° |
| 2026-05-05 17:46 | 34.89546 | -82.16135 | 35084 ft | 480 kts | 44° |
| 2026-05-05 17:46 | 34.93410 | -82.09568 | 35087 ft | 479 kts | 44° |
| 2026-05-05 17:47 | 34.97297 | -82.02950 | 35088 ft | 479 kts | 44° |
| 2026-05-05 17:47 | 35.01177 | -81.96331 | 35098 ft | 480 kts | 44° |
| 2026-05-05 17:48 | 35.05028 | -81.89658 | 35083 ft | 483 kts | 45° |
| 2026-05-05 17:48 | 35.08680 | -81.82809 | 35072 ft | 485 kts | 47° |
| 2026-05-05 17:49 | 35.12310 | -81.75866 | 35060 ft | 485 kts | 47° |
| 2026-05-05 17:49 | 35.15963 | -81.68927 | 35084 ft | 485 kts | 46° |
| 2026-05-05 17:50 | 35.19632 | -81.61996 | 35098 ft | 485 kts | 46° |
| 2026-05-05 17:50 | 35.23295 | -81.55075 | 35049 ft | 485 kts | 46° |
| 2026-05-05 17:51 | 35.26933 | -81.48189 | 35052 ft | 484 kts | 46° |
| 2026-05-05 17:51 | 35.30584 | -81.41259 | 35059 ft | 483 kts | 46° |
| 2026-05-05 17:52 | 35.34225 | -81.34335 | 35069 ft | 483 kts | 46° |
| 2026-05-05 17:52 | 35.37862 | -81.27406 | 35086 ft | 482 kts | 46° |
| 2026-05-05 17:53 | 35.41479 | -81.20500 | 35091 ft | 481 kts | 46° |
| 2026-05-05 17:53 | 35.45059 | -81.13650 | 35099 ft | 480 kts | 46° |
| 2026-05-05 17:54 | 35.48654 | -81.06760 | 35093 ft | 478 kts | 46° |
| 2026-05-05 17:54 | 35.52233 | -80.99887 | 35081 ft | 477 kts | 46° |
| 2026-05-05 17:55 | 35.55814 | -80.92998 | 35069 ft | 477 kts | 46° |
| 2026-05-05 17:55 | 35.59359 | -80.86164 | 35075 ft | 477 kts | 47° |
| 2026-05-05 17:56 | 35.62923 | -80.79279 | 35064 ft | 477 kts | 47° |
| 2026-05-05 17:56 | 35.66480 | -80.72393 | 35063 ft | 476 kts | 47° |
| 2026-05-05 17:57 | 35.69431 | -80.66670 | 35050 ft | 477 kts | 47° |
| 2026-05-05 17:57 | 35.72982 | -80.59772 | 35069 ft | 477 kts | 47° |
| 2026-05-05 17:58 | 35.76530 | -80.52866 | 35079 ft | 477 kts | 47° |
| 2026-05-05 17:58 | 35.80074 | -80.45951 | 35073 ft | 477 kts | 47° |
| 2026-05-05 17:59 | 35.83593 | -80.39074 | 35074 ft | 478 kts | 47° |
| 2026-05-05 17:59 | 35.87136 | -80.32134 | 35039 ft | 478 kts | 47° |
| 2026-05-05 18:00 | 35.90680 | -80.25178 | 35028 ft | 478 kts | 47° |
| 2026-05-05 18:00 | 35.94217 | -80.18222 | 35037 ft | 478 kts | 47° |
| 2026-05-05 18:01 | 35.97745 | -80.11323 | 35038 ft | 477 kts | 47° |
| 2026-05-05 18:01 | 36.01342 | -80.04443 | 35072 ft | 477 kts | 47° |
| 2026-05-05 18:02 | 36.04940 | -79.97544 | 35063 ft | 477 kts | 47° |
| 2026-05-05 18:02 | 36.08524 | -79.90632 | 35086 ft | 478 kts | 47° |
| 2026-05-05 18:03 | 36.12233 | -79.83829 | 35073 ft | 475 kts | 44° |
| 2026-05-05 18:03 | 36.16059 | -79.77227 | 35068 ft | 475 kts | 44° |
| 2026-05-05 18:04 | 36.19902 | -79.70566 | 35042 ft | 475 kts | 44° |
| 2026-05-05 18:04 | 36.23708 | -79.63879 | 35039 ft | 474 kts | 45° |
| 2026-05-05 18:05 | 36.27494 | -79.57188 | 35044 ft | 474 kts | 45° |
| 2026-05-05 18:05 | 36.31274 | -79.50492 | 35028 ft | 474 kts | 45° |
| 2026-05-05 18:06 | 36.35031 | -79.43828 | 35022 ft | 474 kts | 45° |
| 2026-05-05 18:06 | 36.38806 | -79.37120 | 35029 ft | 474 kts | 45° |
| 2026-05-05 18:07 | 36.42578 | -79.30402 | 35031 ft | 474 kts | 45° |
| 2026-05-05 18:07 | 36.46349 | -79.23675 | 35039 ft | 474 kts | 45° |
| 2026-05-05 18:08 | 36.50111 | -79.16949 | 35063 ft | 474 kts | 45° |
| 2026-05-05 18:08 | 36.53874 | -79.10209 | 35045 ft | 474 kts | 45° |
| 2026-05-05 18:09 | 36.57617 | -79.03492 | 35043 ft | 474 kts | 46° |
| 2026-05-05 18:09 | 36.61359 | -78.96734 | 35024 ft | 473 kts | 46° |
| 2026-05-05 18:10 | 36.65080 | -78.89965 | 35006 ft | 472 kts | 46° |
| 2026-05-05 18:10 | 36.68788 | -78.83216 | 35022 ft | 471 kts | 46° |
| 2026-05-05 18:11 | 36.72352 | -78.76389 | 35013 ft | 478 kts | 52° |
| 2026-05-05 18:11 | 36.75445 | -78.69012 | 35082 ft | 481 kts | 54° |
| 2026-05-05 18:12 | 36.78453 | -78.61570 | 35056 ft | 480 kts | 54° |
| 2026-05-05 18:12 | 36.81502 | -78.54174 | 35044 ft | 479 kts | 53° |
| 2026-05-05 18:13 | 36.84576 | -78.46803 | 35041 ft | 478 kts | 53° |
| 2026-05-05 18:13 | 36.87649 | -78.39430 | 35039 ft | 477 kts | 53° |
| 2026-05-05 18:14 | 36.90702 | -78.32081 | 35051 ft | 477 kts | 54° |
| 2026-05-05 18:14 | 36.93751 | -78.24722 | 35034 ft | 477 kts | 54° |
| 2026-05-05 18:15 | 36.96786 | -78.17378 | 35018 ft | 478 kts | 54° |
| 2026-05-05 18:15 | 36.99840 | -78.09976 | 35027 ft | 479 kts | 54° |
| 2026-05-05 18:16 | 37.02895 | -78.02563 | 35028 ft | 480 kts | 54° |
| 2026-05-05 18:16 | 37.05956 | -77.95115 | 35033 ft | 481 kts | 54° |
| 2026-05-05 18:17 | 37.09009 | -77.87665 | 35027 ft | 479 kts | 54° |
| 2026-05-05 18:17 | 37.12028 | -77.80281 | 35028 ft | 479 kts | 55° |
| 2026-05-05 18:18 | 37.15060 | -77.72850 | 35021 ft | 478 kts | 55° |
| 2026-05-05 18:18 | 37.18087 | -77.65414 | 35039 ft | 478 kts | 55° |
| 2026-05-05 18:19 | 37.21106 | -77.57982 | 35035 ft | 477 kts | 55° |
| 2026-05-05 18:19 | 37.24100 | -77.50605 | 35026 ft | 475 kts | 56° |
| 2026-05-05 18:20 | 37.27082 | -77.43215 | 35014 ft | 474 kts | 56° |
| 2026-05-05 18:20 | 37.30055 | -77.35840 | 35021 ft | 473 kts | 56° |
| 2026-05-05 18:21 | 37.33023 | -77.28465 | 35014 ft | 472 kts | 56° |
| 2026-05-05 18:21 | 37.35979 | -77.21100 | 35031 ft | 472 kts | 57° |
| 2026-05-05 18:22 | 37.38931 | -77.13726 | 35012 ft | 472 kts | 57° |
| 2026-05-05 18:22 | 37.41880 | -77.06347 | 35012 ft | 471 kts | 57° |
| 2026-05-05 18:23 | 37.44823 | -76.98989 | 35011 ft | 469 kts | 54° |
| 2026-05-05 18:23 | 37.46705 | -76.95743 | 35019 ft | 453 kts | 37° |
| 2026-05-05 18:23 | 37.49152 | -76.93355 | 35011 ft | 439 kts | 22° |
| 2026-05-05 18:24 | 37.54507 | -76.89845 | 35019 ft | 437 kts | 20° |
| 2026-05-05 18:24 | 37.59932 | -76.86341 | 35042 ft | 439 kts | 21° |
| 2026-05-05 18:25 | 37.65360 | -76.82755 | 35024 ft | 441 kts | 22° |
| 2026-05-05 18:25 | 37.70796 | -76.79124 | 35021 ft | 443 kts | 22° |
| 2026-05-05 18:26 | 37.76248 | -76.75472 | 35011 ft | 444 kts | 22° |
| 2026-05-05 18:26 | 37.81707 | -76.71811 | 35004 ft | 444 kts | 22° |
| 2026-05-05 18:27 | 37.87173 | -76.68141 | 34995 ft | 444 kts | 22° |
| 2026-05-05 18:27 | 37.92637 | -76.64620 | 34999 ft | 443 kts | 20° |
| 2026-05-05 18:28 | 38.00930 | -76.59415 | 34984 ft | 443 kts | 20° |
| 2026-05-05 18:28 | 38.06450 | -76.55918 | 34979 ft | 443 kts | 21° |
| 2026-05-05 18:29 | 38.11960 | -76.52411 | 34995 ft | 443 kts | 21° |
| 2026-05-05 18:29 | 38.17438 | -76.48917 | 34993 ft | 443 kts | 21° |
| 2026-05-05 18:30 | 38.22954 | -76.45394 | 34982 ft | 443 kts | 21° |
| 2026-05-05 18:30 | 38.28471 | -76.41864 | 34980 ft | 444 kts | 22° |
| 2026-05-05 18:31 | 38.33645 | -76.37428 | 34985 ft | 452 kts | 33° |
| 2026-05-05 18:31 | 38.38556 | -76.32418 | 34982 ft | 452 kts | 33° |
| 2026-05-05 18:32 | 38.43464 | -76.27489 | 34981 ft | 452 kts | 32° |
| 2026-05-05 18:32 | 38.48443 | -76.22594 | 34982 ft | 452 kts | 32° |
| 2026-05-05 18:33 | 38.53434 | -76.17704 | 34999 ft | 452 kts | 32° |
| 2026-05-05 18:33 | 38.58419 | -76.12805 | 34990 ft | 453 kts | 32° |
| 2026-05-05 18:34 | 38.63415 | -76.07890 | 34981 ft | 452 kts | 32° |
| 2026-05-05 18:34 | 38.68502 | -76.03109 | 34496 ft | 458 kts | 31° |
| 2026-05-05 18:35 | 38.71067 | -76.00740 | 33986 ft | 452 kts | 31° |
| 2026-05-05 18:35 | 38.73617 | -75.98379 | 33210 ft | 453 kts | 31° |
| 2026-05-05 18:35 | 38.76169 | -75.96006 | 32483 ft | 453 kts | 31° |
| 2026-05-05 18:35 | 38.78716 | -75.93627 | 31792 ft | 453 kts | 31° |
| 2026-05-05 18:36 | 38.81265 | -75.91240 | 31066 ft | 453 kts | 32° |
| 2026-05-05 18:36 | 38.83806 | -75.88854 | 30331 ft | 453 kts | 32° |
| 2026-05-05 18:36 | 38.86368 | -75.86448 | 29513 ft | 461 kts | 32° |
| 2026-05-05 18:36 | 38.88966 | -75.84009 | 28654 ft | 474 kts | 32° |
| 2026-05-05 18:37 | 38.91633 | -75.81499 | 27762 ft | 475 kts | 32° |
| 2026-05-05 18:37 | 38.94298 | -75.78986 | 26876 ft | 475 kts | 32° |
| 2026-05-05 18:37 | 38.96915 | -75.76512 | 26683 ft | 459 kts | 33° |
| 2026-05-05 18:37 | 38.99485 | -75.74081 | 26387 ft | 463 kts | 33° |
| 2026-05-05 18:38 | 39.02126 | -75.71589 | 26127 ft | 475 kts | 33° |
| 2026-05-05 18:38 | 39.04805 | -75.69058 | 25839 ft | 480 kts | 33° |
| 2026-05-05 18:38 | 39.07486 | -75.66515 | 25549 ft | 475 kts | 33° |
| 2026-05-05 18:38 | 39.10130 | -75.64003 | 25276 ft | 470 kts | 33° |
| 2026-05-05 18:39 | 39.12750 | -75.61512 | 25003 ft | 466 kts | 33° |
| 2026-05-05 18:39 | 39.15352 | -75.59038 | 24748 ft | 464 kts | 33° |
| 2026-05-05 18:39 | 39.17917 | -75.56599 | 24483 ft | 463 kts | 33° |
| 2026-05-05 18:39 | 39.20514 | -75.54127 | 24224 ft | 464 kts | 33° |
| 2026-05-05 18:40 | 39.23114 | -75.51650 | 23954 ft | 465 kts | 33° |
| 2026-05-05 18:40 | 39.25757 | -75.49198 | 23530 ft | 470 kts | 31° |
| 2026-05-05 18:40 | 39.28467 | -75.46799 | 23062 ft | 471 kts | 31° |
| 2026-05-05 18:40 | 39.31170 | -75.44439 | 22607 ft | 467 kts | 30° |
| 2026-05-05 18:41 | 39.33851 | -75.42096 | 22194 ft | 463 kts | 31° |
| 2026-05-05 18:41 | 39.36507 | -75.39759 | 21776 ft | 460 kts | 31° |
| 2026-05-05 18:41 | 39.39146 | -75.37422 | 21376 ft | 458 kts | 31° |
| 2026-05-05 18:41 | 39.41735 | -75.35119 | 20979 ft | 457 kts | 31° |
| 2026-05-05 18:42 | 39.44352 | -75.32785 | 20587 ft | 456 kts | 31° |
| 2026-05-05 18:42 | 39.46966 | -75.30453 | 20181 ft | 455 kts | 31° |
| 2026-05-05 18:42 | 39.49567 | -75.28130 | 19789 ft | 455 kts | 31° |
| 2026-05-05 18:42 | 39.52170 | -75.25783 | 19389 ft | 455 kts | 32° |
| 2026-05-05 18:43 | 39.54734 | -75.23396 | 19000 ft | 454 kts | 33° |
| 2026-05-05 18:43 | 39.57293 | -75.20980 | 18599 ft | 454 kts | 33° |
| 2026-05-05 18:43 | 39.59842 | -75.18569 | 18179 ft | 454 kts | 33° |
| 2026-05-05 18:43 | 39.62392 | -75.16164 | 17753 ft | 451 kts | 33° |
| 2026-05-05 18:44 | 39.64923 | -75.13784 | 17374 ft | 448 kts | 33° |
| 2026-05-05 18:44 | 39.66600 | -75.12210 | 17091 ft | 447 kts | 32° |
| 2026-05-05 18:44 | 39.69127 | -75.09865 | 16689 ft | 445 kts | 31° |
| 2026-05-05 18:44 | 39.72535 | -75.06923 | 16152 ft | 443 kts | 29° |
| 2026-05-05 18:45 | 39.75120 | -75.04747 | 15726 ft | 442 kts | 29° |
| 2026-05-05 18:45 | 39.77690 | -75.02573 | 15338 ft | 441 kts | 30° |
| 2026-05-05 18:45 | 39.79421 | -75.01096 | 15066 ft | 440 kts | 30° |
| 2026-05-05 18:45 | 39.81980 | -74.98894 | 14664 ft | 439 kts | 30° |
| 2026-05-05 18:46 | 39.84487 | -74.96728 | 14271 ft | 438 kts | 30° |
| 2026-05-05 18:46 | 39.87014 | -74.94493 | 13877 ft | 438 kts | 31° |
| 2026-05-05 18:46 | 39.89516 | -74.92215 | 13433 ft | 437 kts | 31° |
| 2026-05-05 18:46 | 39.91996 | -74.89935 | 13025 ft | 436 kts | 33° |
| 2026-05-05 18:47 | 39.94250 | -74.87267 | 12616 ft | 438 kts | 45° |
| 2026-05-05 18:47 | 39.96227 | -74.84299 | 12284 ft | 430 kts | 47° |
| 2026-05-05 18:47 | 39.98146 | -74.81368 | 11928 ft | 419 kts | 46° |
| 2026-05-05 18:47 | 40.00051 | -74.78547 | 11585 ft | 410 kts | 45° |
| 2026-05-05 18:48 | 40.01949 | -74.75810 | 11262 ft | 401 kts | 45° |
| 2026-05-05 18:48 | 40.03813 | -74.73146 | 10933 ft | 394 kts | 45° |
| 2026-05-05 18:48 | 40.05619 | -74.70566 | 10628 ft | 387 kts | 45° |
| 2026-05-05 18:48 | 40.07418 | -74.67984 | 10324 ft | 381 kts | 45° |
| 2026-05-05 18:49 | 40.09186 | -74.65442 | 10048 ft | 375 kts | 45° |
| 2026-05-05 18:49 | 40.10907 | -74.62963 | 9985 ft | 362 kts | 45° |
| 2026-05-05 18:49 | 40.12565 | -74.60574 | 9967 ft | 348 kts | 45° |
| 2026-05-05 18:49 | 40.14162 | -74.58272 | 9954 ft | 337 kts | 45° |
| 2026-05-05 18:50 | 40.15731 | -74.56013 | 9961 ft | 335 kts | 45° |
| 2026-05-05 18:50 | 40.17302 | -74.53749 | 9982 ft | 336 kts | 45° |
| 2026-05-05 18:50 | 40.18874 | -74.51481 | 9985 ft | 337 kts | 45° |
| 2026-05-05 18:50 | 40.20459 | -74.49202 | 9985 ft | 337 kts | 43° |
| 2026-05-05 18:51 | 40.22103 | -74.47055 | 9899 ft | 332 kts | 40° |
| 2026-05-05 18:51 | 40.23754 | -74.45013 | 9618 ft | 330 kts | 39° |
| 2026-05-05 18:51 | 40.25429 | -74.42942 | 9245 ft | 331 kts | 40° |
| 2026-05-05 18:51 | 40.27094 | -74.40857 | 8903 ft | 331 kts | 40° |
| 2026-05-05 18:52 | 40.28752 | -74.38767 | 8637 ft | 329 kts | 41° |
| 2026-05-05 18:52 | 40.30385 | -74.36700 | 8406 ft | 325 kts | 41° |
| 2026-05-05 18:52 | 40.32010 | -74.34643 | 8096 ft | 324 kts | 41° |
| 2026-05-05 18:52 | 40.33620 | -74.32604 | 7855 ft | 320 kts | 42° |
| 2026-05-05 18:53 | 40.35216 | -74.30582 | 7586 ft | 318 kts | 42° |
| 2026-05-05 18:53 | 40.36807 | -74.28565 | 7293 ft | 317 kts | 43° |
| 2026-05-05 18:53 | 40.38384 | -74.26564 | 7069 ft | 314 kts | 43° |
| 2026-05-05 18:53 | 40.39960 | -74.24562 | 6994 ft | 317 kts | 43° |
| 2026-05-05 18:54 | 40.41548 | -74.22545 | 6973 ft | 317 kts | 43° |
| 2026-05-05 18:54 | 40.43126 | -74.20538 | 6918 ft | 314 kts | 43° |
| 2026-05-05 18:54 | 40.44658 | -74.18588 | 6723 ft | 309 kts | 43° |
| 2026-05-05 18:54 | 40.46206 | -74.16616 | 6404 ft | 310 kts | 43° |
| 2026-05-05 18:55 | 40.47750 | -74.14649 | 6110 ft | 309 kts | 44° |
| 2026-05-05 18:55 | 40.49291 | -74.12684 | 5815 ft | 307 kts | 44° |
| 2026-05-05 18:55 | 40.50815 | -74.10739 | 5577 ft | 303 kts | 44° |
| 2026-05-05 18:55 | 40.52361 | -74.08863 | 5302 ft | 302 kts | 37° |
| 2026-05-05 18:56 | 40.54121 | -74.07388 | 5004 ft | 299 kts | 21° |
| 2026-05-05 18:56 | 40.56094 | -74.06586 | 4750 ft | 295 kts | 15° |
| 2026-05-05 18:56 | 40.58045 | -74.05732 | 4466 ft | 295 kts | 17° |
| 2026-05-05 18:56 | 40.59993 | -74.04898 | 4155 ft | 293 kts | 9° |
| 2026-05-05 18:57 | 40.61974 | -74.04601 | 4048 ft | 289 kts | 359° |
| 2026-05-05 18:57 | 40.64011 | -74.04515 | 4007 ft | 294 kts | 358° |
| 2026-05-05 18:57 | 40.66044 | -74.04304 | 3999 ft | 293 kts | 6° |
| 2026-05-05 18:57 | 40.68059 | -74.03873 | 3996 ft | 294 kts | 7° |
| 2026-05-05 18:58 | 40.70076 | -74.03418 | 4001 ft | 293 kts | 7° |
| 2026-05-05 18:58 | 40.72091 | -74.02958 | 3988 ft | 293 kts | 7° |
| 2026-05-05 18:58 | 40.74098 | -74.02490 | 3974 ft | 292 kts | 9° |
| 2026-05-05 18:58 | 40.75997 | -74.01556 | 4004 ft | 292 kts | 25° |
| 2026-05-05 18:59 | 40.77802 | -74.00320 | 3962 ft | 292 kts | 27° |
| 2026-05-05 18:59 | 40.79565 | -73.99064 | 3916 ft | 282 kts | 27° |
| 2026-05-05 18:59 | 40.81247 | -73.97845 | 3908 ft | 269 kts | 27° |
| 2026-05-05 18:59 | 40.82847 | -73.96683 | 3918 ft | 255 kts | 27° |
| 2026-05-05 19:00 | 40.84403 | -73.95552 | 3958 ft | 256 kts | 27° |
| 2026-05-05 19:00 | 40.85962 | -73.94416 | 3970 ft | 254 kts | 27° |
| 2026-05-05 19:00 | 40.87484 | -73.93303 | 3902 ft | 252 kts | 27° |
| 2026-05-05 19:00 | 40.89008 | -73.92190 | 3714 ft | 248 kts | 27° |
| 2026-05-05 19:01 | 40.90523 | -73.91087 | 3345 ft | 249 kts | 27° |
| 2026-05-05 19:01 | 40.92047 | -73.89976 | 3016 ft | 251 kts | 27° |
| 2026-05-05 19:01 | 40.93579 | -73.88867 | 2996 ft | 249 kts | 27° |
| 2026-05-05 19:01 | 40.95091 | -73.87778 | 2992 ft | 246 kts | 27° |
| 2026-05-05 19:02 | 40.96601 | -73.86692 | 2993 ft | 246 kts | 27° |
| 2026-05-05 19:02 | 40.98089 | -73.85587 | 2990 ft | 246 kts | 35° |
| 2026-05-05 19:02 | 40.99178 | -73.83887 | 3001 ft | 241 kts | 70° |
| 2026-05-05 19:02 | 40.99433 | -73.81767 | 3013 ft | 237 kts | 104° |
| 2026-05-05 19:03 | 40.98884 | -73.79780 | 3011 ft | 227 kts | 125° |
| 2026-05-05 19:03 | 40.97942 | -73.78179 | 2978 ft | 213 kts | 151° |
| 2026-05-05 19:03 | 40.96655 | -73.77377 | 2939 ft | 199 kts | 166° |
| 2026-05-05 19:03 | 40.95389 | -73.76789 | 2877 ft | 187 kts | 167° |
| 2026-05-05 19:04 | 40.94190 | -73.76243 | 2731 ft | 178 kts | 167° |
| 2026-05-05 19:04 | 40.93022 | -73.75727 | 2608 ft | 180 kts | 167° |
| 2026-05-05 19:04 | 40.91814 | -73.75317 | 2504 ft | 176 kts | 185° |
| 2026-05-05 19:04 | 40.90747 | -73.75852 | 2502 ft | 164 kts | 221° |
| 2026-05-05 19:05 | 40.89982 | -73.76955 | 2501 ft | 163 kts | 227° |
| 2026-05-05 19:05 | 40.89221 | -73.78076 | 2290 ft | 164 kts | 220° |
| 2026-05-05 19:05 | 40.88304 | -73.78937 | 2053 ft | 160 kts | 212° |
| 2026-05-05 19:05 | 40.87395 | -73.79731 | 2008 ft | 152 kts | 212° |
| 2026-05-05 19:06 | 40.86476 | -73.80508 | 1869 ft | 160 kts | 211° |
| 2026-05-05 19:06 | 40.85537 | -73.81285 | 1663 ft | 155 kts | 211° |
| 2026-05-05 19:06 | 40.84656 | -73.82013 | 1453 ft | 144 kts | 211° |
| 2026-05-05 19:06 | 40.83831 | -73.82695 | 1246 ft | 141 kts | 211° |
| 2026-05-05 19:07 | 40.82994 | -73.83386 | 1087 ft | 142 kts | 209° |
| 2026-05-05 19:07 | 40.82159 | -73.84075 | 893 ft | 139 kts | 210° |
| 2026-05-05 19:07 | 40.81316 | -73.84774 | 759 ft | 146 kts | 209° |
| 2026-05-05 19:07 | 40.80479 | -73.85481 | 590 ft | 146 kts | 207° |
| 2026-05-05 19:08 | 40.79625 | -73.86172 | 315 ft | 142 kts | 211° |
| 2026-05-05 19:08 | 40.78806 | -73.86860 | 101 ft | 131 kts | 210° |
| 2026-05-05 19:08 | 40.78076 | -73.87457 | 6 ft | 109 kts | 212° |
| 2026-05-05 19:08 | 40.77617 | -73.87829 | 24 ft | 44 kts | 215° |
| 2026-05-05 19:09 | 40.77469 | -73.87959 | 22 ft | 16 kts | 207° |
| 2026-05-05 19:09 | 40.77364 | -73.87992 | 20 ft | 15 kts | 184° |
| 2026-05-05 19:09 | 40.77304 | -73.87985 | 19 ft | 4 kts | 131° |
| 2026-05-05 19:09 | 40.77306 | -73.87952 | 19 ft | 5 kts | 57° |
| 2026-05-05 19:10 | 40.77349 | -73.87909 | 19 ft | 10 kts | 32° |
| 2026-05-05 19:10 | 40.77409 | -73.87857 | 19 ft | 10 kts | 33° |
| 2026-05-05 19:10 | 40.77469 | -73.87807 | 20 ft | 10 kts | 31° |
| 2026-05-05 19:10 | 40.77528 | -73.87759 | 20 ft | 10 kts | 32° |
| 2026-05-05 19:11 | 40.77583 | -73.87713 | 22 ft | 8 kts | 32° |
| 2026-05-05 19:11 | 40.77612 | -73.87656 | 20 ft | 8 kts | 91° |
| 2026-05-05 19:11 | 40.77588 | -73.87602 | 19 ft | 7 kts | 146° |
| 2026-05-05 19:11 | 40.77563 | -73.87554 | 19 ft | 7 kts | 87° |
| 2026-05-05 19:12 | 40.77593 | -73.87513 | 19 ft | 5 kts | 32° |
| 2026-05-05 19:12 | 40.77615 | -73.87494 | 19 ft | 2 kts | 33° |
| 2026-05-05 19:12 | 40.77620 | -73.87490 | 19 ft | 0 kts | 33° |
| 2026-05-05 19:16 | 40.77620 | -73.87489 | 19 ft | 0 kts | 33° |
| 2026-05-05 19:17 | 40.77630 | -73.87481 | 20 ft | 3 kts | 33° |
| 2026-05-05 19:17 | 40.77638 | -73.87452 | 19 ft | 4 kts | 110° |
| 2026-05-05 19:17 | 40.77620 | -73.87426 | 19 ft | 3 kts | 133° |
| 2026-05-05 19:17 | 40.77611 | -73.87414 | 19 ft | 0 kts | 133° |